Time;durP1;ratioP1;P1;durP2;ratioP2;P2;SDS_P1;SDS_P2;PMS_P1;PMS_P2;Temp;Humidity;BMP_temperature;BMP_pressure;BME280_temperature;BME280_humidity;BME280_pressure;Samples;Min_cycle;Max_cycle;Signal;HPM_P1;HPM_P2
2024/03/11 05:38:04;;;;;;;3.07;1.30;;;3.30;96.10;;;;;;4918321;29;20334;-84
2024/03/11 05:44:19;;;;;;;3.90;1.63;;;3.40;95.60;;;;;;4900106;29;20222;-87
2024/03/11 06:22:55;;;;;;;4.00;1.10;;;3.40;95.70;;;;;;5804101;23;20231;-85
2024/03/11 06:25:23;;;;;;;3.30;1.47;;;3.50;95.60;;;;;;4879865;29;20219;-86
2024/03/11 06:27:51;;;;;;;1.30;1.10;;;3.60;95.70;;;;;;4877949;29;20294;-88
2024/03/11 06:30:18;;;;;;;2.53;1.30;;;3.90;94.80;;;;;;4877267;29;20659;-85
2024/03/11 06:32:48;;;;;;;3.53;1.47;;;4.10;94.10;;;;;;4876313;29;20200;-87
2024/03/11 06:35:15;;;;;;;4.60;1.77;;;4.30;93.90;;;;;;4877627;29;20208;-89
2024/03/11 06:37:43;;;;;;;2.77;1.30;;;4.40;92.80;;;;;;4877816;29;20235;-88
2024/03/11 06:40:16;;;;;;;6.47;1.70;;;4.40;93.50;;;;;;4872898;29;20244;-90
2024/03/11 06:42:45;;;;;;;4.07;1.80;;;4.50;92.70;;;;;;4878520;29;20236;-90
2024/03/11 06:45:11;;;;;;;5.50;1.60;;;4.50;93.00;;;;;;4886881;29;20208;-91
2024/03/11 06:47:39;;;;;;;3.67;1.23;;;4.40;92.40;;;;;;4881894;29;20212;-85
2024/03/11 06:50:08;;;;;;;8.50;3.50;;;4.50;92.80;;;;;;4879895;29;20194;-85
2024/03/11 06:53:23;;;;;;;7.77;2.87;;;4.50;92.70;;;;;;4880382;29;20248;-85
2024/03/11 06:55:51;;;;;;;3.23;2.17;;;4.40;92.90;;;;;;4880132;29;20561;-85
2024/03/11 09:40:11;;;;;;;1.70;0.82;;;18.10;9.80;;;;;;5627824;23;20354;-79
2024/03/11 09:42:37;;;;;;;1.10;0.73;;;17.50;12.50;;;;;;4899926;29;20191;-82
2024/03/11 09:48:42;;;;;;;1.83;0.90;;;16.70;11.80;;;;;;4903166;29;20637;-82
2024/03/11 09:51:12;;;;;;;0.80;0.80;;;18.70;10.10;;;;;;4915726;29;20661;-82
2024/03/11 09:53:40;;;;;;;1.08;0.90;;;19.70;9.30;;;;;;4899762;29;20236;-82
2024/03/11 10:44:55;;;;;;;2.28;0.70;;;17.50;9.30;;;;;;5624925;23;20241;-81
2024/03/11 10:47:24;;;;;;;1.20;0.95;;;17.90;9.60;;;;;;4918762;29;20269;-82
2024/03/11 10:49:51;;;;;;;0.85;0.80;;;17.90;9.60;;;;;;4917556;29;20198;-82
2024/03/11 10:52:21;;;;;;;1.02;0.90;;;18.60;7.90;;;;;;4917386;29;20209;-81
2024/03/11 10:54:50;;;;;;;0.88;0.85;;;19.20;7.10;;;;;;4917566;29;20191;-83
2024/03/11 11:03:32;;;;;;;1.23;0.85;;;18.00;7.50;;;;;;4917774;29;20257;-84
2024/03/11 11:06:14;;;;;;;2.22;0.98;;;17.10;9.50;;;;;;4918233;29;20195;-84
2024/03/11 11:08:42;;;;;;;1.05;0.70;;;17.40;9.30;;;;;;4880629;29;20217;-81
2024/03/11 11:11:42;;;;;;;0.68;0.63;;;18.00;7.90;;;;;;4917994;29;20194;-84
2024/03/11 11:14:27;;;;;;;0.75;0.68;;;17.10;9.10;;;;;;4918424;29;20195;-84
2024/03/11 15:17:35;;;;;;;1.10;1.00;;;13.50;16.00;;;;;;5401423;23;20237;-89
2024/03/11 15:20:06;;;;;;;3.45;1.05;;;13.60;15.20;;;;;;4915406;29;20216;-91
2024/03/11 15:22:34;;;;;;;1.67;1.00;;;13.60;16.10;;;;;;4868382;29;20210;-89
2024/03/11 15:25:01;;;;;;;2.00;0.90;;;13.50;15.40;;;;;;4898533;29;20665;-89
2024/03/11 18:23:23;;;;;;;4.65;3.10;;;11.40;24.80;;;;;;4896888;29;20227;-87
2024/03/11 18:25:49;;;;;;;6.85;3.03;;;11.40;24.80;;;;;;4899676;29;20200;-85
2024/03/11 18:28:17;;;;;;;6.68;3.53;;;11.40;24.80;;;;;;4898704;29;20208;-87
2024/03/11 18:30:42;;;;;;;6.72;3.83;;;11.50;25.00;;;;;;4900236;29;20195;-87
2024/03/11 18:33:30;;;;;;;7.53;4.93;;;11.50;25.00;;;;;;4899110;29;20281;-85
2024/03/11 18:35:58;;;;;;;3.05;2.55;;;11.60;25.00;;;;;;4892551;29;20200;-85
2024/03/11 18:38:26;;;;;;;8.32;2.22;;;11.40;24.80;;;;;;4898469;29;20597;-87
2024/03/11 18:40:53;;;;;;;4.95;2.58;;;11.30;24.70;;;;;;4898723;29;20211;-84
2024/03/11 18:43:21;;;;;;;7.95;2.83;;;11.20;24.70;;;;;;4899288;29;20207;-86
2024/03/11 18:45:51;;;;;;;4.38;2.72;;;11.00;26.60;;;;;;4898898;29;20282;-86
2024/03/11 18:48:40;;;;;;;7.07;2.90;;;11.00;27.70;;;;;;4899926;29;20290;-86
2024/03/11 18:54:47;;;;;;;6.78;4.78;;;10.90;27.10;;;;;;4889961;29;20190;-84
2024/03/11 19:00:38;;;;;;;8.15;4.60;;;11.10;28.40;;;;;;4877745;29;20223;-86
2024/03/11 19:03:05;;;;;;;7.28;4.10;;;11.20;29.60;;;;;;4879292;29;20200;-84
2024/03/11 19:05:33;;;;;;;6.95;3.50;;;11.20;28.90;;;;;;4877235;29;20276;-85
2024/03/11 19:08:01;;;;;;;6.60;3.55;;;11.30;29.00;;;;;;4874104;29;20208;-85
2024/03/11 19:10:31;;;;;;;6.63;3.75;;;11.30;30.10;;;;;;4877410;29;20226;-86
2024/03/11 19:12:58;;;;;;;6.38;4.20;;;11.30;30.10;;;;;;4872511;29;20214;-86
2024/03/11 19:15:27;;;;;;;7.68;4.30;;;11.30;30.90;;;;;;4879028;29;20579;-85
2024/03/11 19:17:54;;;;;;;7.28;3.05;;;11.20;32.00;;;;;;4880356;29;20238;-85
2024/03/11 19:20:25;;;;;;;6.20;2.85;;;11.20;31.00;;;;;;4866449;29;20646;-84
2024/03/11 19:22:53;;;;;;;5.50;2.90;;;11.00;30.60;;;;;;4871191;29;20211;-84
2024/03/11 19:25:23;;;;;;;6.22;2.90;;;10.70;31.40;;;;;;4887754;29;20227;-85
2024/03/11 19:27:51;;;;;;;4.85;3.05;;;10.50;34.80;;;;;;4883749;29;20682;-85
2024/03/11 19:33:52;;;;;;;4.18;2.15;;;10.60;34.70;;;;;;4883733;29;20219;-84
2024/03/11 20:07:20;;;;;;;6.80;2.70;;;9.50;51.30;;;;;;5024998;23;20295;-82
2024/03/11 20:10:20;;;;;;;4.00;2.80;;;9.40;52.70;;;;;;4880481;29;20730;-84
2024/03/11 20:20:32;;;;;;;3.75;2.60;;;9.20;58.20;;;;;;4883214;29;20308;-84
2024/03/11 20:44:17;;;;;;;33.67;23.33;;;10.00;54.30;;;;;;4883146;29;20263;-84
2024/03/11 20:54:12;;;;;;;3.35;2.45;;;9.40;54.70;;;;;;4882699;29;20194;-83
